Time;durP1;ratioP1;P1;durP2;ratioP2;P2;SDS_P1;SDS_P2;PMS_P1;PMS_P2;Temp;Humidity;BMP_temperature;BMP_pressure;BME280_temperature;BME280_humidity;BME280_pressure;Samples;Min_cycle;Max_cycle;Signal;HPM_P1;HPM_P2
2023/05/08 00:01:58;;;;;;;12.50;4.20;;;;;;;15.59;54.13;101236.66;5008614;28;20403;-77
2023/05/08 00:04:23;;;;;;;15.30;4.50;;;;;;;15.61;53.76;101231.94;5009801;28;20396;-77
2023/05/08 00:06:50;;;;;;;19.63;4.20;;;;;;;15.57;53.88;101240.50;5024545;28;20398;-76
2023/05/08 00:09:16;;;;;;;12.77;4.43;;;;;;;15.44;54.21;101247.34;5020925;28;20475;-77
2023/05/08 00:11:41;;;;;;;11.90;4.17;;;;;;;15.37;54.29;101243.78;5009752;28;20423;-77
2023/05/08 00:14:07;;;;;;;15.50;4.40;;;;;;;15.35;54.04;101243.16;5009352;28;20481;-77
2023/05/08 00:16:32;;;;;;;11.00;4.00;;;;;;;15.15;54.54;101244.78;5015360;28;20446;-77
2023/05/08 00:18:59;;;;;;;12.10;3.90;;;;;;;14.91;54.99;101244.06;5009933;28;20384;-77
2023/05/08 00:21:25;;;;;;;11.87;4.27;;;;;;;15.03;54.75;101244.41;5018309;28;20503;-76
2023/05/08 00:23:50;;;;;;;9.93;3.60;;;;;;;15.16;53.91;101235.72;5014336;28;20384;-77
2023/05/08 00:26:15;;;;;;;8.03;3.60;;;;;;;15.27;53.52;101245.94;5018697;28;20433;-76
2023/05/08 00:28:41;;;;;;;14.03;3.90;;;;;;;15.35;53.33;101253.84;5009509;28;20431;-76
2023/05/08 00:31:06;;;;;;;11.07;3.80;;;;;;;15.36;53.04;101255.50;5009060;28;20411;-76
2023/05/08 00:33:32;;;;;;;10.23;3.67;;;;;;;15.35;53.14;101248.50;5009048;28;20423;-76
2023/05/08 00:36:02;;;;;;;12.03;3.57;;;;;;;15.43;52.79;101250.22;5016140;28;20402;-76
2023/05/08 00:38:34;;;;;;;14.40;4.23;;;;;;;15.44;52.53;101255.38;4995690;28;20436;-76
2023/05/08 00:41:00;;;;;;;11.95;4.00;;;;;;;15.43;52.78;101261.75;5009682;28;20402;-77
2023/05/08 00:43:27;;;;;;;11.70;3.97;;;;;;;15.37;52.63;101250.97;5009589;28;20395;-77
2023/05/08 00:45:57;;;;;;;9.65;3.63;;;;;;;15.19;53.08;101254.06;5008284;28;20752;-76
2023/05/08 00:48:24;;;;;;;12.80;3.97;;;;;;;15.18;53.17;101255.91;5010075;28;20392;-77
2023/05/08 00:50:51;;;;;;;10.47;3.63;;;;;;;15.11;53.25;101247.00;5021793;28;20401;-77
2023/05/08 00:53:18;;;;;;;11.45;3.80;;;;;;;15.00;53.54;101248.28;5009400;28;20526;-77
2023/05/08 00:55:44;;;;;;;8.38;3.33;;;;;;;15.02;53.32;101248.94;5011400;28;20395;-76
2023/05/08 00:58:11;;;;;;;10.60;3.63;;;;;;;14.96;53.67;101252.34;5028993;28;20392;-77
2023/05/08 01:00:40;;;;;;;13.45;3.78;;;;;;;14.83;53.94;101255.66;5011138;28;20404;-77
2023/05/08 01:03:06;;;;;;;15.82;4.03;;;;;;;14.58;54.39;101244.44;5013340;28;20471;-76
2023/05/08 01:05:32;;;;;;;11.13;3.60;;;;;;;14.52;54.88;101245.13;5011996;28;20395;-76
2023/05/08 01:07:58;;;;;;;9.87;3.50;;;;;;;14.60;54.73;101252.25;5012365;28;20404;-77
2023/05/08 01:10:29;;;;;;;11.77;3.85;;;;;;;14.77;54.02;101252.91;5017321;28;20403;-77
2023/05/08 01:13:08;;;;;;;12.27;3.97;;;;;;;14.84;53.63;101253.84;5028695;28;20472;-77
2023/05/08 01:15:49;;;;;;;11.23;3.88;;;;;;;14.79;53.92;101256.22;5006157;28;20395;-77
2023/05/08 01:18:52;;;;;;;14.23;4.18;;;;;;;14.53;54.60;101254.78;5012020;28;20460;-77
2023/05/08 01:21:47;;;;;;;9.20;3.53;;;;;;;14.38;55.12;101265.44;5008256;28;20470;-77
2023/05/08 01:24:33;;;;;;;14.30;3.80;;;;;;;14.45;55.19;101274.38;5022619;28;20431;-77
2023/05/08 01:27:36;;;;;;;8.95;3.55;;;;;;;14.48;54.78;101278.53;5003520;28;20573;-77
2023/05/08 01:30:32;;;;;;;11.88;3.72;;;;;;;14.36;55.29;101280.81;5004914;28;20436;-77
2023/05/08 01:33:04;;;;;;;10.50;3.60;;;;;;;14.31;55.41;101277.84;5012457;28;20480;-77
2023/05/08 01:35:46;;;;;;;12.93;4.05;;;;;;;14.22;55.58;101287.75;5013022;28;20410;-78
2023/05/08 01:38:21;;;;;;;11.85;3.83;;;;;;;14.13;56.23;101270.16;5010013;28;20402;-77
2023/05/08 01:41:06;;;;;;;10.52;3.78;;;;;;;13.90;56.76;101276.34;5009365;28;20396;-77
2023/05/08 01:43:49;;;;;;;10.03;3.70;;;;;;;13.69;57.47;101279.66;5011585;28;20426;-78
2023/05/08 01:46:24;;;;;;;10.90;3.78;;;;;;;13.89;57.00;101281.88;5015401;28;20891;-77
2023/05/08 01:49:08;;;;;;;13.23;4.10;;;;;;;13.91;56.60;101275.34;5011525;28;20395;-78
2023/05/08 01:51:52;;;;;;;13.30;4.20;;;;;;;13.76;57.17;101269.94;5011283;28;20487;-78
2023/05/08 01:54:23;;;;;;;10.60;3.85;;;;;;;13.82;57.05;101278.25;5008683;28;20400;-77
2023/05/08 01:56:52;;;;;;;12.90;4.15;;;;;;;13.94;56.50;101272.31;5011645;28;20447;-77
2023/05/08 01:59:20;;;;;;;13.05;3.92;;;;;;;13.97;56.19;101265.78;5014709;28;20882;-79
2023/05/08 02:01:48;;;;;;;12.20;3.85;;;;;;;14.15;55.90;101269.00;5016824;28;20593;-77
2023/05/08 02:04:15;;;;;;;8.48;3.53;;;;;;;14.30;55.06;101262.88;5010488;28;20411;-77
2023/05/08 02:06:42;;;;;;;12.63;3.88;;;;;;;14.48;54.36;101268.69;5011267;28;20399;-77
2023/05/08 02:09:09;;;;;;;13.30;3.97;;;;;;;14.47;54.58;101268.88;5036071;28;20499;-76
2023/05/08 02:11:40;;;;;;;10.52;3.65;;;;;;;14.34;54.95;101270.31;5011697;28;20467;-76
2023/05/08 02:14:07;;;;;;;12.23;3.90;;;;;;;14.33;55.01;101270.47;5010685;28;20412;-77
2023/05/08 02:16:34;;;;;;;10.55;3.90;;;;;;;14.31;55.12;101265.34;5011458;28;20482;-77
2023/05/08 02:19:01;;;;;;;10.70;3.55;;;;;;;14.31;55.22;101262.69;5012069;28;20885;-77
2023/05/08 02:21:28;;;;;;;9.55;3.58;;;;;;;14.25;55.43;101258.06;5012269;28;20407;-77
2023/05/08 02:23:56;;;;;;;12.15;4.00;;;;;;;14.21;55.71;101270.09;5010007;28;20506;-77
2023/05/08 02:26:24;;;;;;;12.63;3.80;;;;;;;14.06;56.21;101278.06;5011683;28;20884;-77
2023/05/08 02:28:52;;;;;;;14.98;3.80;;;;;;;13.86;56.79;101272.38;5011936;28;20408;-77
2023/05/08 02:31:18;;;;;;;13.40;3.90;;;;;;;13.92;56.32;101269.00;5010992;28;20929;-77
2023/05/08 02:33:44;;;;;;;11.27;3.58;;;;;;;13.95;56.29;101278.47;5011760;28;20407;-77
2023/05/08 02:36:12;;;;;;;13.13;4.07;;;;;;;13.85;56.86;101280.56;5011415;28;20428;-77
2023/05/08 02:38:43;;;;;;;14.57;4.45;;;;;;;13.77;56.99;101281.44;5010558;28;20414;-76
2023/05/08 02:41:11;;;;;;;10.70;3.83;;;;;;;13.76;56.67;101269.94;5009742;28;20403;-76
2023/05/08 02:43:37;;;;;;;16.58;4.35;;;;;;;13.79;56.68;101273.25;5010420;28;20897;-76
2023/05/08 02:46:17;;;;;;;12.00;4.00;;;;;;;13.91;56.38;101269.19;5010358;28;20415;-76
2023/05/08 02:48:55;;;;;;;15.05;4.40;;;;;;;13.83;56.56;101263.91;5011375;28;20388;-76
2023/05/08 02:51:49;;;;;;;10.07;3.70;;;;;;;14.06;55.96;101266.56;5010699;28;20399;-76
2023/05/08 02:54:27;;;;;;;10.00;3.83;;;;;;;14.14;55.64;101270.00;5009917;28;20888;-76
2023/05/08 02:57:13;;;;;;;14.67;4.07;;;;;;;14.13;55.52;101273.69;5011142;28;20470;-76
2023/05/08 02:59:44;;;;;;;14.53;4.30;;;;;;;14.11;55.76;101274.84;5011240;28;20415;-77
2023/05/08 03:02:36;;;;;;;9.85;3.53;;;;;;;13.98;55.89;101262.13;5010712;28;20482;-76
2023/05/08 03:05:10;;;;;;;11.55;3.92;;;;;;;13.97;56.42;101263.13;4998443;28;20503;-76
2023/05/08 03:07:40;;;;;;;10.00;3.72;;;;;;;14.18;55.56;101254.47;5028533;28;20408;-78
2023/05/08 03:10:11;;;;;;;12.38;3.88;;;;;;;14.24;55.02;101248.44;5018114;28;20416;-78
2023/05/08 03:12:41;;;;;;;9.65;3.67;;;;;;;14.14;55.16;101248.66;5017381;28;20422;-78
2023/05/08 03:15:11;;;;;;;8.85;3.90;;;;;;;13.99;55.93;101245.16;5009538;28;20821;-78
2023/05/08 03:17:39;;;;;;;10.07;3.70;;;;;;;13.96;56.05;101235.66;5019144;28;20415;-77
2023/05/08 03:20:09;;;;;;;10.80;4.03;;;;;;;13.93;56.25;101233.34;5011049;28;20473;-78
2023/05/08 03:22:37;;;;;;;15.07;4.38;;;;;;;14.05;55.92;101241.75;5011905;28;20471;-77
2023/05/08 03:25:05;;;;;;;13.00;3.85;;;;;;;14.11;55.71;101232.19;5018417;28;20416;-78
2023/05/08 03:27:32;;;;;;;11.27;4.10;;;;;;;14.15;55.87;101242.34;5026313;28;20423;-76
2023/05/08 03:30:00;;;;;;;11.77;4.15;;;;;;;14.24;55.58;101240.44;5010502;28;20403;-77
2023/05/08 03:32:27;;;;;;;10.07;4.00;;;;;;;14.27;55.84;101250.72;5009386;28;20400;-77
2023/05/08 03:34:54;;;;;;;10.93;3.80;;;;;;;14.37;55.50;101247.81;5007675;28;20392;-76
2023/05/08 03:37:20;;;;;;;9.35;3.90;;;;;;;14.53;55.20;101252.97;5010002;28;20749;-77
2023/05/08 03:39:46;;;;;;;10.50;4.05;;;;;;;14.65;54.75;101261.34;5010641;28;20411;-76
2023/05/08 03:42:20;;;;;;;15.05;5.93;;;;;;;14.66;55.04;101288.88;5007996;28;20857;-77
2023/05/08 03:44:49;;;;;;;12.23;4.38;;;;;;;14.58;55.53;101281.78;5009565;28;20994;-77
2023/05/08 03:47:27;;;;;;;10.65;4.13;;;;;;;14.57;55.68;101282.78;5007095;28;20416;-76
2023/05/08 03:49:53;;;;;;;10.13;4.07;;;;;;;14.56;56.08;101288.28;5009955;28;20388;-76
2023/05/08 03:52:18;;;;;;;14.30;4.50;;;;;;;14.52;56.18;101296.66;5009423;28;20400;-77
2023/05/08 03:54:44;;;;;;;11.95;4.47;;;;;;;14.48;55.92;101294.53;5013249;28;20391;-76
2023/05/08 03:57:10;;;;;;;11.10;3.90;;;;;;;14.34;56.42;101296.97;5009453;28;20419;-78
2023/05/08 03:59:45;;;;;;;11.93;4.07;;;;;;;14.41;56.38;101310.44;5009477;28;20414;-78
2023/05/08 04:02:40;;;;;;;12.00;4.38;;;;;;;14.69;55.73;101312.53;5013561;28;20507;-77
2023/05/08 04:05:33;;;;;;;9.80;3.93;;;;;;;14.84;55.20;101301.88;5008612;28;20442;-77
2023/05/08 04:08:26;;;;;;;13.63;4.07;;;;;;;14.82;55.42;101322.56;5004754;28;20451;-76
2023/05/08 04:11:10;;;;;;;13.73;4.50;;;;;;;14.76;55.84;101323.31;5008236;28;20492;-77
2023/05/08 04:13:44;;;;;;;13.30;4.47;;;;;;;14.80;56.00;101320.09;5009183;28;20477;-76
2023/05/08 04:16:21;;;;;;;14.95;4.38;;;;;;;14.93;55.80;101327.47;5023984;28;20391;-77
2023/05/08 04:18:49;;;;;;;12.98;4.78;;;;;;;15.14;55.76;101326.72;5009554;28;21478;-78
2023/05/08 04:21:19;;;;;;;10.98;5.05;;;;;;;15.15;55.80;101315.03;5007233;28;20879;-76
2023/05/08 04:23:48;;;;;;;15.65;6.00;;;;;;;15.18;55.96;101312.00;5009693;28;20406;-76
2023/05/08 04:26:16;;;;;;;11.60;5.15;;;;;;;15.24;56.28;101310.41;5005873;28;20856;-77
2023/05/08 04:28:42;;;;;;;13.70;5.50;;;;;;;15.44;55.93;101308.81;5005994;28;20959;-78
2023/05/08 04:31:15;;;;;;;15.40;5.43;;;;;;;15.60;55.81;101310.44;5010287;28;20491;-78
2023/05/08 04:33:43;;;;;;;15.00;4.75;;;;;;;15.66;55.92;101308.84;5009828;28;20776;-77
2023/05/08 04:36:12;;;;;;;11.40;4.72;;;;;;;15.82;55.73;101313.16;5010915;28;20582;-77
2023/05/08 04:38:38;;;;;;;13.02;4.63;;;;;;;15.88;55.53;101314.25;5010042;28;20487;-77
2023/05/08 04:41:04;;;;;;;15.48;5.65;;;;;;;15.86;55.67;101301.91;5010326;28;20450;-77
2023/05/08 04:43:29;;;;;;;17.13;5.63;;;;;;;16.01;55.61;101307.19;5009062;28;20443;-77
2023/05/08 04:45:55;;;;;;;15.38;5.93;;;;;;;16.17;55.51;101303.44;5010619;28;20493;-77
2023/05/08 04:48:20;;;;;;;15.00;5.90;;;;;;;16.28;55.11;101307.44;5009989;28;20570;-80
2023/05/08 04:50:46;;;;;;;12.10;5.50;;;;;;;16.44;54.78;101322.38;5009354;28;20910;-78
2023/05/08 04:53:11;;;;;;;13.57;5.10;;;;;;;16.55;54.55;101324.53;5009439;28;20400;-78
2023/05/08 04:55:37;;;;;;;16.73;5.30;;;;;;;16.55;54.44;101326.38;5010610;28;20412;-76
2023/05/08 04:58:02;;;;;;;15.30;5.20;;;;;;;16.49;54.83;101319.09;5009408;28;20741;-76
2023/05/08 05:00:27;;;;;;;14.13;5.20;;;;;;;16.51;54.71;101331.28;5007271;28;20414;-78
2023/05/08 05:02:53;;;;;;;16.08;5.13;;;;;;;16.55;54.62;101331.72;5008885;28;20415;-77
2023/05/08 05:05:18;;;;;;;14.73;5.80;;;;;;;16.58;54.34;101332.16;5007688;28;20414;-77
2023/05/08 05:07:44;;;;;;;15.57;7.45;;;;;;;16.68;54.14;101333.69;5007213;28;20957;-77
2023/05/08 05:10:09;;;;;;;12.67;5.20;;;;;;;16.65;54.10;101334.88;5005896;28;20886;-77
2023/05/08 05:12:35;;;;;;;15.65;5.50;;;;;;;16.77;53.88;101340.53;4999955;28;20396;-77
2023/05/08 05:15:00;;;;;;;16.63;4.77;;;;;;;16.81;53.41;101349.81;5008705;28;20384;-77
2023/05/08 05:17:26;;;;;;;12.68;4.60;;;;;;;16.85;52.74;101340.41;5006982;28;20431;-77
2023/05/08 05:19:52;;;;;;;14.57;5.30;;;;;;;16.92;52.68;101343.13;5007590;28;20708;-77
2023/05/08 05:22:17;;;;;;;19.33;5.10;;;;;;;16.86;52.66;101344.75;5006810;28;20458;-77
2023/05/08 05:24:43;;;;;;;18.73;5.13;;;;;;;16.93;52.60;101350.97;5024392;28;20726;-77
2023/05/08 05:27:08;;;;;;;15.50;5.20;;;;;;;17.09;52.30;101354.38;5008472;28;20400;-77
2023/05/08 05:29:34;;;;;;;15.70;5.17;;;;;;;17.20;52.14;101343.91;5008298;28;20446;-77
2023/05/08 05:32:00;;;;;;;15.83;5.77;;;;;;;17.23;51.78;101361.41;5009941;28;20486;-77
2023/05/08 05:34:26;;;;;;;18.23;6.30;;;;;;;17.11;51.71;101357.66;5009728;28;20514;-77
2023/05/08 05:36:51;;;;;;;19.37;6.40;;;;;;;17.11;51.76;101363.84;5008175;28;20447;-77
2023/05/08 05:39:16;;;;;;;18.80;6.07;;;;;;;17.07;51.99;101357.25;5010193;28;20399;-77
2023/05/08 05:41:43;;;;;;;21.67;6.43;;;;;;;17.21;51.82;101358.13;5024712;28;20470;-77
2023/05/08 05:44:08;;;;;;;19.15;6.30;;;;;;;17.11;51.81;101352.31;5012669;28;20418;-77
2023/05/08 05:46:34;;;;;;;16.52;6.45;;;;;;;17.14;51.63;101366.13;5012131;28;20407;-77
2023/05/08 05:49:00;;;;;;;18.30;6.47;;;;;;;17.10;51.86;101367.53;5012522;28;20435;-77
2023/05/08 05:51:26;;;;;;;16.60;6.70;;;;;;;17.26;51.57;101365.56;5010503;28;20457;-76
2023/05/08 05:53:52;;;;;;;17.23;7.88;;;;;;;16.97;52.15;101368.28;5011987;28;20384;-77
2023/05/08 05:56:18;;;;;;;20.85;11.55;;;;;;;16.98;52.21;101371.81;5009781;28;20404;-77
2023/05/08 05:58:44;;;;;;;15.48;5.32;;;;;;;17.11;52.09;101371.06;5010228;28;20402;-77
2023/05/08 06:01:10;;;;;;;16.02;5.35;;;;;;;17.16;51.98;101376.63;5011830;28;20392;-76
2023/05/08 06:03:36;;;;;;;19.80;5.38;;;;;;;17.26;51.92;101377.09;5014556;28;20427;-77
2023/05/08 06:06:02;;;;;;;11.03;4.63;;;;;;;17.36;51.72;101369.53;5016546;28;20892;-77
2023/05/08 06:08:28;;;;;;;19.27;5.70;;;;;;;17.36;52.06;101372.22;5012578;28;20404;-77
2023/05/08 06:10:54;;;;;;;19.97;5.83;;;;;;;17.50;51.98;101373.13;5009736;28;20396;-77
2023/05/08 06:13:19;;;;;;;16.20;5.68;;;;;;;17.49;52.10;101374.13;5012286;28;20384;-77
2023/05/08 06:15:45;;;;;;;17.67;5.40;;;;;;;17.60;52.13;101388.00;5030364;28;20399;-77
2023/05/08 06:18:10;;;;;;;11.03;5.20;;;;;;;17.37;52.53;101373.84;5012492;28;20877;-77
2023/05/08 06:20:37;;;;;;;15.70;5.93;;;;;;;17.61;52.19;101382.44;5012770;28;20415;-77
2023/05/08 06:23:03;;;;;;;18.83;5.88;;;;;;;17.76;52.11;101385.78;5023647;28;20455;-77
2023/05/08 06:25:29;;;;;;;14.25;5.35;;;;;;;17.86;51.77;101373.88;5025290;28;20408;-76
2023/05/08 06:27:55;;;;;;;16.03;5.53;;;;;;;18.09;51.04;101373.53;5027342;28;20411;-77
2023/05/08 06:30:21;;;;;;;16.90;6.15;;;;;;;18.15;50.67;101372.72;5026215;28;20498;-77
2023/05/08 06:32:46;;;;;;;14.38;6.07;;;;;;;18.29;50.53;101385.13;5019463;28;20412;-76
2023/05/08 06:35:12;;;;;;;16.27;6.10;;;;;;;18.47;50.51;101386.38;5020667;28;20392;-76
2023/05/08 06:37:37;;;;;;;15.50;5.18;;;;;;;18.65;50.09;101383.88;5032419;28;20820;-78
2023/05/08 06:40:03;;;;;;;11.70;4.97;;;;;;;18.87;49.82;101381.00;5027747;28;20396;-77
2023/05/08 06:42:29;;;;;;;11.15;4.75;;;;;;;18.88;49.74;101399.59;5029797;28;20422;-77
2023/05/08 06:44:54;;;;;;;23.60;6.17;;;;;;;18.49;50.49;101403.09;5043015;28;20450;-78
2023/05/08 06:47:19;;;;;;;12.73;5.15;;;;;;;18.74;50.18;101403.31;5022494;28;20411;-78
2023/05/08 06:49:45;;;;;;;14.87;5.20;;;;;;;19.02;49.78;101404.97;5027964;28;20879;-77
2023/05/08 06:52:10;;;;;;;12.23;5.15;;;;;;;18.93;49.40;101400.84;5028997;28;20399;-78
2023/05/08 06:54:36;;;;;;;11.60;5.00;;;;;;;19.21;49.57;101397.91;5027988;28;20388;-77
2023/05/08 06:57:02;;;;;;;11.27;4.80;;;;;;;19.23;49.08;101393.13;5029486;28;20431;-77
2023/05/08 06:59:27;;;;;;;13.73;5.00;;;;;;;19.34;49.05;101397.88;5028247;28;20431;-79
2023/05/08 07:01:52;;;;;;;13.10;5.27;;;;;;;19.54;48.78;101405.06;5044418;28;20463;-77
2023/05/08 07:04:18;;;;;;;14.77;5.75;;;;;;;19.53;48.70;101403.38;5042531;28;20467;-80
2023/05/08 07:06:44;;;;;;;14.93;5.27;;;;;;;19.67;48.80;101407.69;5027123;28;20422;-77
2023/05/08 07:09:10;;;;;;;11.57;5.22;;;;;;;19.86;48.44;101409.50;5032282;28;20466;-79
2023/05/08 07:11:35;;;;;;;12.55;4.97;;;;;;;20.02;48.12;101410.88;5013205;28;20931;-78
2023/05/08 07:14:01;;;;;;;17.50;6.50;;;;;;;20.11;47.85;101422.16;5013893;28;20470;-77
2023/05/08 07:16:26;;;;;;;13.65;5.28;;;;;;;20.10;48.00;101428.63;5012388;28;20392;-78
2023/05/08 07:18:52;;;;;;;11.57;5.00;;;;;;;20.30;48.03;101430.38;5012781;28;20392;-79
2023/05/08 07:21:20;;;;;;;14.35;5.50;;;;;;;20.38;47.84;101427.38;5013553;28;20515;-77
2023/05/08 07:23:46;;;;;;;12.63;5.35;;;;;;;20.42;47.66;101432.13;5012804;28;20411;-77
2023/05/08 07:26:12;;;;;;;14.93;5.82;;;;;;;20.51;47.25;101421.09;5012090;28;20872;-77
2023/05/08 07:28:37;;;;;;;11.90;4.97;;;;;;;20.55;46.99;101433.91;5012752;28;20407;-79
2023/05/08 07:31:05;;;;;;;10.57;5.18;;;;;;;20.67;46.37;101433.22;5013784;28;20403;-78
2023/05/08 07:33:32;;;;;;;14.13;5.53;;;;;;;20.70;46.14;101438.19;5011113;28;20781;-77
2023/05/08 07:35:58;;;;;;;12.52;5.35;;;;;;;20.82;45.97;101436.41;5013965;28;20490;-77
2023/05/08 07:38:24;;;;;;;12.32;5.07;;;;;;;20.84;46.08;101430.81;5015162;28;20402;-77
2023/05/08 07:40:50;;;;;;;11.77;5.03;;;;;;;20.82;45.70;101431.03;5012769;28;20392;-77
2023/05/08 07:43:16;;;;;;;10.70;4.70;;;;;;;20.87;45.69;101431.19;5012609;28;20484;-78
2023/05/08 07:45:42;;;;;;;12.52;5.03;;;;;;;20.99;45.44;101418.66;5012936;28;20487;-77
2023/05/08 07:48:07;;;;;;;15.63;5.17;;;;;;;21.08;45.46;101426.44;5012802;28;20491;-76
2023/05/08 07:50:33;;;;;;;14.35;5.63;;;;;;;20.98;45.42;101419.69;5012191;28;20852;-77
2023/05/08 07:52:58;;;;;;;15.70;5.57;;;;;;;21.06;45.54;101420.44;5012379;28;20395;-78
2023/05/08 07:55:24;;;;;;;21.85;5.78;;;;;;;21.15;45.29;101419.91;5011027;28;20392;-77
2023/05/08 07:57:50;;;;;;;9.47;4.90;;;;;;;21.28;44.89;101432.44;5012762;28;20463;-78
2023/05/08 08:00:15;;;;;;;10.48;4.53;;;;;;;21.43;44.86;101424.00;5012444;28;20788;-77
2023/05/08 08:02:42;;;;;;;16.33;5.03;;;;;;;21.54;44.57;101436.75;5013151;28;20391;-76
2023/05/08 08:05:08;;;;;;;14.82;5.00;;;;;;;21.58;44.76;101431.72;5012105;28;20876;-77
2023/05/08 08:07:34;;;;;;;9.85;4.80;;;;;;;21.50;44.39;101426.63;5011750;28;20407;-77
2023/05/08 08:10:02;;;;;;;14.45;4.75;;;;;;;21.56;44.57;101429.25;5013028;28;20849;-78
2023/05/08 08:12:28;;;;;;;20.27;5.40;;;;;;;21.51;44.38;101428.28;5030981;28;20485;-76
2023/05/08 08:14:53;;;;;;;10.35;4.78;;;;;;;21.49;44.53;101425.00;5008189;28;20542;-77
2023/05/08 08:17:19;;;;;;;17.00;5.43;;;;;;;21.58;44.47;101432.56;5003026;28;20769;-77
2023/05/08 08:19:45;;;;;;;9.10;4.80;;;;;;;21.57;44.48;101430.06;5019718;28;20409;-77
2023/05/08 08:22:10;;;;;;;11.05;4.43;;;;;;;21.60;43.90;101431.50;5010804;28;20495;-77
2023/05/08 08:24:35;;;;;;;14.20;5.13;;;;;;;21.73;43.74;101431.34;5011511;28;20399;-78
2023/05/08 08:27:01;;;;;;;10.90;6.27;;;;;;;22.12;43.57;101432.69;5011446;28;20399;-78
2023/05/08 08:29:27;;;;;;;16.65;6.18;;;;;;;22.29;42.56;101430.19;5034982;28;20384;-77
2023/05/08 08:31:52;;;;;;;19.17;6.90;;;;;;;22.28;42.39;101423.13;5014351;28;20406;-76
2023/05/08 08:34:18;;;;;;;17.93;7.80;;;;;;;22.33;42.46;101425.16;5010107;28;20408;-77
2023/05/08 08:36:43;;;;;;;20.00;9.18;;;;;;;22.31;42.33;101422.69;5011595;28;20396;-76
2023/05/08 08:39:08;;;;;;;18.47;10.60;;;;;;;22.36;42.45;101424.69;5010698;28;20392;-76
2023/05/08 08:41:34;;;;;;;15.97;10.53;;;;;;;22.35;42.46;101414.94;5008862;28;20464;-77
2023/05/08 08:43:59;;;;;;;17.85;12.70;;;;;;;22.64;42.01;101423.22;5009193;28;20411;-76
2023/05/08 08:46:26;;;;;;;16.67;12.03;;;;;;;22.65;42.13;101436.50;5009941;28;20388;-78
2023/05/08 08:48:54;;;;;;;14.77;9.85;;;;;;;22.80;41.44;101427.94;5011470;28;20423;-77
2023/05/08 08:51:40;;;;;;;13.85;6.20;;;;;;;22.87;41.22;101427.81;5011853;28;20910;-81
2023/05/08 08:54:12;;;;;;;13.02;4.32;;;;;;;22.91;40.56;101434.41;5009770;28;20392;-77
2023/05/08 08:56:43;;;;;;;11.73;4.30;;;;;;;22.93;40.25;101439.56;5008208;28;20495;-79
2023/05/08 08:59:10;;;;;;;14.38;4.80;;;;;;;22.89;40.14;101425.72;5010958;28;20388;-78
2023/05/08 09:01:39;;;;;;;14.07;5.13;;;;;;;22.75;39.68;101421.59;5010443;28;20414;-78
2023/05/08 09:04:04;;;;;;;17.65;5.32;;;;;;;22.63;39.85;101432.38;5010470;28;20408;-79
2023/05/08 09:06:34;;;;;;;12.30;5.35;;;;;;;22.67;39.97;101430.84;5010700;28;20410;-77
2023/05/08 09:09:01;;;;;;;14.65;5.40;;;;;;;22.56;40.53;101437.88;5011390;28;20384;-78
2023/05/08 09:11:27;;;;;;;10.68;6.45;;;;;;;22.82;40.47;101433.13;5012062;28;20400;-78
2023/05/08 09:13:56;;;;;;;13.65;8.90;;;;;;;22.83;40.04;101441.00;5011535;28;20698;-76
2023/05/08 09:16:23;;;;;;;17.40;7.03;;;;;;;22.84;40.46;101431.81;5012400;28;20412;-78
2023/05/08 09:18:49;;;;;;;16.37;8.40;;;;;;;23.09;40.78;101437.00;5013746;28;20396;-77
2023/05/08 09:21:14;;;;;;;20.95;11.40;;;;;;;23.03;40.90;101442.50;5013696;28;20384;-76
2023/05/08 09:24:03;;;;;;;25.50;21.17;;;;;;;22.86;40.21;101437.78;5030123;28;20396;-79
2023/05/08 09:26:32;;;;;;;18.15;15.50;;;;;;;22.89;40.22;101440.03;5015245;28;20400;-79
2023/05/08 09:29:14;;;;;;;25.25;18.52;;;;;;;22.85;40.47;101435.31;5010722;28;20446;-79
2023/05/08 09:31:51;;;;;;;67.22;35.35;;;;;;;22.93;39.91;101445.81;5026475;28;20395;-76
2023/05/08 09:34:28;;;;;;;10.75;5.13;;;;;;;22.84;39.16;101442.63;5010129;28;21107;-78
2023/05/08 09:37:15;;;;;;;10.35;4.22;;;;;;;;;;5013166;28;20400;-77
2023/05/08 09:39:42;;;;;;;12.38;4.50;;;;;;;22.67;39.67;101444.34;5012506;28;20412;-78
2023/05/08 09:42:07;;;;;;;20.43;4.63;;;;;;;22.62;40.25;101449.66;5015178;28;20400;-76
2023/05/08 09:44:48;;;;;;;20.42;4.88;;;;;;;22.61;41.10;101442.59;5020696;28;20861;-78
2023/05/08 09:47:22;;;;;;;18.27;4.73;;;;;;;22.56;41.13;101448.69;5026784;28;20407;-79
2023/05/08 09:50:23;;;;;;;14.50;4.50;;;;;;;22.51;40.97;101454.78;5016378;28;20841;-77
2023/05/08 09:52:49;;;;;;;13.13;3.97;;;;;;;22.42;41.20;101458.03;5013703;28;20931;-78
2023/05/08 09:55:15;;;;;;;11.23;4.00;;;;;;;22.37;41.92;101466.84;5013693;28;20510;-77
2023/05/08 09:57:56;;;;;;;11.82;4.18;;;;;;;22.28;43.42;101460.94;5014802;28;20392;-78
2023/05/08 10:00:22;;;;;;;10.95;4.43;;;;;;;22.02;44.90;101454.03;5015854;28;20395;-79
2023/05/08 10:02:59;;;;;;;12.93;4.18;;;;;;;21.87;45.14;101467.09;5014435;28;20411;-78
2023/05/08 10:05:33;;;;;;;13.57;4.25;;;;;;;21.84;45.77;101464.84;5015058;28;20436;-78
2023/05/08 10:08:17;;;;;;;9.77;4.30;;;;;;;21.60;47.13;101463.88;5013515;28;20388;-79
2023/05/08 10:10:43;;;;;;;14.10;6.55;;;;;;;21.39;47.68;101447.06;5013119;28;20852;-79
2023/05/08 10:13:08;;;;;;;15.47;5.47;;;;;;;21.22;48.45;101456.78;5013910;28;20407;-81
2023/05/08 10:15:36;;;;;;;15.03;5.40;;;;;;;21.25;48.63;101459.88;5016016;28;20395;-87
2023/05/08 10:18:04;;;;;;;16.08;4.82;;;;;;;21.11;48.60;101461.84;5015365;28;20462;-87
2023/05/08 10:20:31;;;;;;;14.70;4.57;;;;;;;21.06;49.17;101467.09;5030417;28;20388;-87
2023/05/08 10:22:57;;;;;;;13.88;4.93;;;;;;;20.99;50.21;101466.31;5014241;28;20400;-86
2023/05/08 10:25:24;;;;;;;16.52;5.32;;;;;;;20.90;50.36;101479.25;5016114;28;20726;-85
2023/05/08 10:28:12;;;;;;;13.75;4.47;;;;;;;20.51;50.30;101485.72;5015578;28;20380;-85
2023/05/08 10:30:47;;;;;;;11.27;4.30;;;;;;;20.19;51.29;101491.91;5016604;28;20369;-85
2023/05/08 10:33:16;;;;;;;12.35;4.40;;;;;;;19.83;52.01;101497.88;5015206;28;20408;-84
2023/05/08 10:35:44;;;;;;;13.40;4.13;;;;;;;19.59;52.45;101494.81;5014692;28;20434;-86
2023/05/08 10:38:10;;;;;;;13.80;4.40;;;;;;;19.37;52.64;101493.41;5017109;28;20372;-84
2023/05/08 10:40:37;;;;;;;15.43;4.53;;;;;;;19.32;52.81;101498.56;5018340;28;20379;-84
2023/05/08 10:43:04;;;;;;;12.48;4.25;;;;;;;19.20;53.00;101499.22;5018213;28;20856;-86
2023/05/08 10:45:30;;;;;;;12.65;4.45;;;;;;;19.35;52.98;101492.78;5045491;28;20415;-85
2023/05/08 10:48:31;;;;;;;13.63;4.68;;;;;;;19.49;54.11;101492.53;5017220;28;20943;-87
2023/05/08 10:51:09;;;;;;;11.77;4.57;;;;;;;19.51;54.15;101505.78;5017419;28;20412;-85
2023/05/08 10:53:52;;;;;;;8.57;4.00;;;;;;;19.34;53.83;101497.34;5018244;28;20383;-86
2023/05/08 10:56:25;;;;;;;10.07;4.15;;;;;;;19.38;53.92;101506.63;5016184;28;20719;-85
2023/05/08 10:58:57;;;;;;;15.15;4.90;;;;;;;19.44;54.30;101502.28;5016595;28;20469;-87
2023/05/08 11:01:24;;;;;;;17.20;5.03;;;;;;;19.40;54.70;101503.75;5016145;28;20387;-87
2023/05/08 11:03:50;;;;;;;12.88;4.45;;;;;;;19.42;54.87;101504.34;5030919;28;20411;-87
2023/05/08 11:06:17;;;;;;;16.70;5.22;;;;;;;19.52;55.76;101517.34;5014104;28;20392;-87
2023/05/08 11:08:45;;;;;;;13.68;4.68;;;;;;;19.41;55.67;101510.75;5014102;28;20880;-86
2023/05/08 11:11:33;;;;;;;13.35;4.80;;;;;;;19.22;55.93;101505.19;5012965;28;20407;-85
2023/05/08 11:14:10;;;;;;;14.90;4.90;;;;;;;19.26;55.80;101508.31;5014971;28;20451;-87
2023/05/08 11:16:55;;;;;;;15.15;5.10;;;;;;;19.37;55.94;101509.53;5014990;28;20479;-85
2023/05/08 11:19:23;;;;;;;17.02;4.90;;;;;;;19.32;56.22;101495.88;5001065;28;20391;-86
2023/05/08 11:22:11;;;;;;;15.75;4.93;;;;;;;19.29;56.73;101497.16;5014317;28;20399;-86
2023/05/08 11:24:57;;;;;;;15.85;5.05;;;;;;;19.10;57.42;101488.91;5015790;28;20420;-89
2023/05/08 11:27:47;;;;;;;17.10;5.20;;;;;;;18.99;57.89;101494.88;5016172;28;20388;-87
2023/05/08 11:30:37;;;;;;;16.85;5.80;;;;;;;18.85;58.21;101496.75;5020189;28;20800;-88